sensor_id;sensor_type;location;lat;lon;timestamp;pressure;altitude;pressure_sealevel;temperature;humidity
76998;BME280;65930;48.874;10.734;2023-05-09T04:44:02;96266.78;;;10.24;72.06
76998;BME280;65930;48.874;10.734;2023-05-09T04:46:30;96268.75;;;10.27;71.46
76998;BME280;65930;48.874;10.734;2023-05-09T04:48:58;96267.59;;;10.35;71.49
76998;BME280;65930;48.874;10.734;2023-05-09T04:51:26;96264.81;;;10.46;71.78
76998;BME280;65930;48.874;10.734;2023-05-09T04:53:54;96261.66;;;10.47;70.46
76998;BME280;65930;48.874;10.734;2023-05-09T04:56:22;96257.31;;;10.53;70.33
76998;BME280;65930;48.874;10.734;2023-05-09T04:58:50;96266.03;;;10.63;70.15
76998;BME280;65930;48.874;10.734;2023-05-09T05:01:20;96264.03;;;10.74;70.37
76998;BME280;65930;48.874;10.734;2023-05-09T05:03:48;96263.25;;;10.70;69.79
76998;BME280;65930;48.874;10.734;2023-05-09T05:06:16;96263.63;;;10.65;70.75
76998;BME280;65930;48.874;10.734;2023-05-09T05:08:43;96251.78;;;10.68;69.83
76998;BME280;65930;48.874;10.734;2023-05-09T05:11:11;96257.31;;;10.71;70.09
76998;BME280;65930;48.874;10.734;2023-05-09T05:13:40;96256.13;;;10.72;68.94
76998;BME280;65930;48.874;10.734;2023-05-09T05:16:08;96256.13;;;10.86;69.52
76998;BME280;65930;48.874;10.734;2023-05-09T05:18:37;96263.63;;;11.00;69.10
76998;BME280;65930;48.874;10.734;2023-05-09T05:21:05;96255.66;;;11.16;67.78
76998;BME280;65930;48.874;10.734;2023-05-09T05:23:33;96255.63;;;11.30;67.84
76998;BME280;65930;48.874;10.734;2023-05-09T05:26:01;96259.97;;;11.35;67.75
76998;BME280;65930;48.874;10.734;2023-05-09T05:28:29;96252.03;;;11.40;67.91
76998;BME280;65930;48.874;10.734;2023-05-09T05:30:57;96246.91;;;11.32;66.79
76998;BME280;65930;48.874;10.734;2023-05-09T05:33:25;96255.22;;;11.35;67.53
76998;BME280;65930;48.874;10.734;2023-05-09T05:35:54;96249.66;;;11.42;66.78
76998;BME280;65930;48.874;10.734;2023-05-09T05:38:22;96259.91;;;11.60;66.55
76998;BME280;65930;48.874;10.734;2023-05-09T05:40:50;96264.22;;;11.78;65.98
76998;BME280;65930;48.874;10.734;2023-05-09T05:43:18;96267.75;;;11.86;67.14
76998;BME280;65930;48.874;10.734;2023-05-09T05:45:46;96268.53;;;11.86;66.77
76998;BME280;65930;48.874;10.734;2023-05-09T05:48:14;96263.84;;;11.73;66.40
76998;BME280;65930;48.874;10.734;2023-05-09T05:50:42;96268.16;;;11.88;66.75
76998;BME280;65930;48.874;10.734;2023-05-09T05:53:11;96264.13;;;11.96;66.26
76998;BME280;65930;48.874;10.734;2023-05-09T05:55:39;96267.69;;;12.00;65.38
76998;BME280;65930;48.874;10.734;2023-05-09T05:58:07;96263.75;;;11.98;65.72
76998;BME280;65930;48.874;10.734;2023-05-09T06:00:34;96252.69;;;11.87;67.05
76998;BME280;65930;48.874;10.734;2023-05-09T06:03:02;96259.00;;;11.91;68.02
76998;BME280;65930;48.874;10.734;2023-05-09T06:05:30;96257.91;;;11.74;67.31
76998;BME280;65930;48.874;10.734;2023-05-09T06:07:58;96255.94;;;11.64;67.38
76998;BME280;65930;48.874;10.734;2023-05-09T06:10:28;96257.91;;;11.74;67.19
76998;BME280;65930;48.874;10.734;2023-05-09T06:12:55;96250.72;;;11.80;66.35
76998;BME280;65930;48.874;10.734;2023-05-09T06:15:23;96252.59;;;12.08;65.13
76998;BME280;65930;48.874;10.734;2023-05-09T06:17:51;96252.06;;;12.24;64.64
76998;BME280;65930;48.874;10.734;2023-05-09T06:20:20;96237.06;;;12.14;64.16
76998;BME280;65930;48.874;10.734;2023-05-09T06:22:48;96243.78;;;12.20;65.41
76998;BME280;65930;48.874;10.734;2023-05-09T06:25:16;96235.00;;;12.25;64.32
76998;BME280;65930;48.874;10.734;2023-05-09T06:27:45;96232.69;;;12.13;64.84
76998;BME280;65930;48.874;10.734;2023-05-09T06:30:13;96242.75;;;11.86;64.91
76998;BME280;65930;48.874;10.734;2023-05-09T06:32:52;96237.34;;;12.34;64.70
76998;BME280;65930;48.874;10.734;2023-05-09T06:35:20;96227.63;;;12.56;63.56
76998;BME280;65930;48.874;10.734;2023-05-09T06:37:48;96227.34;;;12.88;63.05
76998;BME280;65930;48.874;10.734;2023-05-09T06:40:16;96229.66;;;13.00;62.88
76998;BME280;65930;48.874;10.734;2023-05-09T06:42:45;96225.03;;;12.83;63.01
76998;BME280;65930;48.874;10.734;2023-05-09T06:45:13;96219.84;;;13.30;61.09
76998;BME280;65930;48.874;10.734;2023-05-09T06:47:41;96223.06;;;13.25;62.42
76998;BME280;65930;48.874;10.734;2023-05-09T06:50:09;96224.44;;;13.02;62.22
76998;BME280;65930;48.874;10.734;2023-05-09T06:52:37;96214.59;;;12.94;61.62
76998;BME280;65930;48.874;10.734;2023-05-09T06:55:07;96211.59;;;12.78;63.34
76998;BME280;65930;48.874;10.734;2023-05-09T06:57:35;96211.63;;;12.71;62.81
76998;BME280;65930;48.874;10.734;2023-05-09T07:00:07;96220.88;;;12.57;63.83
76998;BME280;65930;48.874;10.734;2023-05-09T07:02:35;96218.81;;;12.68;64.16
76998;BME280;65930;48.874;10.734;2023-05-09T07:05:08;96210.13;;;12.63;63.83
76998;BME280;65930;48.874;10.734;2023-05-09T07:07:36;96205.91;;;12.92;64.06
76998;BME280;65930;48.874;10.734;2023-05-09T07:10:05;96208.97;;;13.42;62.75
76998;BME280;65930;48.874;10.734;2023-05-09T07:12:41;96207.44;;;13.72;62.17
76998;BME280;65930;48.874;10.734;2023-05-09T07:15:13;96201.31;;;14.10;61.41
76998;BME280;65930;48.874;10.734;2023-05-09T07:17:51;96202.03;;;14.15;60.60
76998;BME280;65930;48.874;10.734;2023-05-09T07:20:19;96201.22;;;14.44;58.90
76998;BME280;65930;48.874;10.734;2023-05-09T07:22:47;96202.84;;;14.42;59.99
76998;BME280;65930;48.874;10.734;2023-05-09T07:25:15;96200.22;;;14.58;60.08
76998;BME280;65930;48.874;10.734;2023-05-09T07:27:43;96191.72;;;14.65;60.19
76998;BME280;65930;48.874;10.734;2023-05-09T07:30:13;96193.25;;;14.70;60.21
76998;BME280;65930;48.874;10.734;2023-05-09T07:32:41;96186.53;;;14.67;59.75
76998;BME280;65930;48.874;10.734;2023-05-09T07:35:09;96182.56;;;14.41;58.55
76998;BME280;65930;48.874;10.734;2023-05-09T07:37:37;96182.44;;;14.48;59.22
76998;BME280;65930;48.874;10.734;2023-05-09T07:40:06;96176.09;;;14.48;59.28
76998;BME280;65930;48.874;10.734;2023-05-09T07:42:34;96182.28;;;14.59;59.69
76998;BME280;65930;48.874;10.734;2023-05-09T07:45:03;96184.09;;;14.92;59.58
76998;BME280;65930;48.874;10.734;2023-05-09T07:47:33;96173.91;;;15.45;57.93
76998;BME280;65930;48.874;10.734;2023-05-09T07:50:01;96157.91;;;15.69;56.21
76998;BME280;65930;48.874;10.734;2023-05-09T07:52:29;96148.19;;;15.77;57.67
76998;BME280;65930;48.874;10.734;2023-05-09T07:55:01;96155.41;;;15.74;54.96
76998;BME280;65930;48.874;10.734;2023-05-09T07:57:29;96149.47;;;15.53;55.19
76998;BME280;65930;48.874;10.734;2023-05-09T07:59:57;96144.53;;;15.60;56.01
76998;BME280;65930;48.874;10.734;2023-05-09T08:02:25;96155.47;;;15.71;55.45
76998;BME280;65930;48.874;10.734;2023-05-09T08:04:54;96146.41;;;15.67;53.09
76998;BME280;65930;48.874;10.734;2023-05-09T08:07:22;96142.72;;;15.70;54.34
76998;BME280;65930;48.874;10.734;2023-05-09T08:09:52;96144.06;;;16.17;53.81
76998;BME280;65930;48.874;10.734;2023-05-09T08:12:20;96143.44;;;16.26;52.26
76998;BME280;65930;48.874;10.734;2023-05-09T08:14:48;96130.34;;;16.39;53.80
76998;BME280;65930;48.874;10.734;2023-05-09T08:17:15;96121.88;;;16.43;52.07
76998;BME280;65930;48.874;10.734;2023-05-09T08:19:43;96121.28;;;16.51;51.03
76998;BME280;65930;48.874;10.734;2023-05-09T08:22:16;96123.97;;;16.39;51.89
76998;BME280;65930;48.874;10.734;2023-05-09T08:24:44;96113.88;;;16.61;50.38
76998;BME280;65930;48.874;10.734;2023-05-09T08:27:13;96117.97;;;16.72;49.69
76998;BME280;65930;48.874;10.734;2023-05-09T08:29:43;96107.38;;;17.09;49.66
76998;BME280;65930;48.874;10.734;2023-05-09T08:32:11;96105.50;;;16.90;48.18
76998;BME280;65930;48.874;10.734;2023-05-09T08:34:39;96103.56;;;17.03;48.08
76998;BME280;65930;48.874;10.734;2023-05-09T08:37:07;96102.69;;;17.06;49.08
76998;BME280;65930;48.874;10.734;2023-05-09T08:39:36;96104.34;;;17.03;49.11
76998;BME280;65930;48.874;10.734;2023-05-09T08:42:05;96097.94;;;16.74;49.72
76998;BME280;65930;48.874;10.734;2023-05-09T08:44:33;96101.06;;;16.92;48.66
76998;BME280;65930;48.874;10.734;2023-05-09T08:47:03;96101.84;;;16.93;48.80
76998;BME280;65930;48.874;10.734;2023-05-09T08:49:32;96093.25;;;17.29;48.24
76998;BME280;65930;48.874;10.734;2023-05-09T08:52:02;96086.06;;;17.28;47.50
76998;BME280;65930;48.874;10.734;2023-05-09T08:54:30;96084.72;;;17.74;45.69
76998;BME280;65930;48.874;10.734;2023-05-09T08:57:00;96086.03;;;17.56;47.48
76998;BME280;65930;48.874;10.734;2023-05-09T08:59:28;96087.09;;;17.75;48.13
76998;BME280;65930;48.874;10.734;2023-05-09T09:01:59;96090.69;;;18.01;45.28
76998;BME280;65930;48.874;10.734;2023-05-09T09:04:27;96097.63;;;17.96;45.85
76998;BME280;65930;48.874;10.734;2023-05-09T09:06:55;96087.56;;;18.37;45.33
76998;BME280;65930;48.874;10.734;2023-05-09T09:09:23;96089.09;;;18.51;46.48
76998;BME280;65930;48.874;10.734;2023-05-09T09:11:52;96072.84;;;18.45;45.46
76998;BME280;65930;48.874;10.734;2023-05-09T09:14:23;96074.63;;;18.39;45.66
76998;BME280;65930;48.874;10.734;2023-05-09T09:16:54;96072.47;;;18.69;44.57
76998;BME280;65930;48.874;10.734;2023-05-09T09:19:29;96069.66;;;18.69;44.43
76998;BME280;65930;48.874;10.734;2023-05-09T09:21:58;96070.63;;;19.09;46.36
76998;BME280;65930;48.874;10.734;2023-05-09T09:24:30;96067.38;;;19.11;43.46
76998;BME280;65930;48.874;10.734;2023-05-09T09:27:04;96074.13;;;18.79;43.53
76998;BME280;65930;48.874;10.734;2023-05-09T09:29:34;96062.56;;;18.77;44.38
76998;BME280;65930;48.874;10.734;2023-05-09T09:32:05;96060.75;;;18.83;44.30
76998;BME280;65930;48.874;10.734;2023-05-09T09:34:42;96058.44;;;18.69;44.05
76998;BME280;65930;48.874;10.734;2023-05-09T09:37:20;96053.91;;;18.84;47.04
76998;BME280;65930;48.874;10.734;2023-05-09T09:39:55;96049.09;;;19.28;43.29
76998;BME280;65930;48.874;10.734;2023-05-09T09:42:23;96042.41;;;18.91;43.41
76998;BME280;65930;48.874;10.734;2023-05-09T09:45:01;96043.63;;;19.24;46.19
76998;BME280;65930;48.874;10.734;2023-05-09T09:47:32;96028.59;;;19.18;39.84
76998;BME280;65930;48.874;10.734;2023-05-09T09:50:08;96035.69;;;19.45;43.57
76998;BME280;65930;48.874;10.734;2023-05-09T09:52:41;96020.31;;;18.93;43.17
76998;BME280;65930;48.874;10.734;2023-05-09T09:55:17;96024.28;;;18.83;44.35
76998;BME280;65930;48.874;10.734;2023-05-09T09:57:45;96026.50;;;18.88;41.76
76998;BME280;65930;48.874;10.734;2023-05-09T10:00:24;96014.22;;;18.95;42.59
76998;BME280;65930;48.874;10.734;2023-05-09T10:02:54;96023.75;;;19.19;41.12
76998;BME280;65930;48.874;10.734;2023-05-09T10:05:24;96016.84;;;19.94;42.96
76998;BME280;65930;48.874;10.734;2023-05-09T10:07:56;96016.00;;;20.15;38.33
76998;BME280;65930;48.874;10.734;2023-05-09T10:10:27;96010.28;;;19.57;39.34
76998;BME280;65930;48.874;10.734;2023-05-09T10:12:56;95999.41;;;20.08;38.55
76998;BME280;65930;48.874;10.734;2023-05-09T10:15:29;96002.69;;;19.67;39.82
76998;BME280;65930;48.874;10.734;2023-05-09T10:18:12;95994.78;;;19.44;37.83
76998;BME280;65930;48.874;10.734;2023-05-09T10:20:45;95990.00;;;20.02;39.90
76998;BME280;65930;48.874;10.734;2023-05-09T10:23:15;95989.66;;;19.82;37.17
76998;BME280;65930;48.874;10.734;2023-05-09T10:25:47;95977.50;;;19.94;38.72
76998;BME280;65930;48.874;10.734;2023-05-09T10:28:22;95971.66;;;20.29;38.01
76998;BME280;65930;48.874;10.734;2023-05-09T10:31:00;95966.69;;;19.84;39.50
76998;BME280;65930;48.874;10.734;2023-05-09T10:33:41;95963.91;;;19.53;39.75
76998;BME280;65930;48.874;10.734;2023-05-09T10:36:17;95970.50;;;20.08;42.12
76998;BME280;65930;48.874;10.734;2023-05-09T10:38:49;95965.91;;;19.83;39.51
76998;BME280;65930;48.874;10.734;2023-05-09T10:41:19;95956.69;;;20.32;38.24
76998;BME280;65930;48.874;10.734;2023-05-09T10:43:48;95950.78;;;20.57;39.74
76998;BME280;65930;48.874;10.734;2023-05-09T10:46:19;95947.97;;;20.48;35.74
76998;BME280;65930;48.874;10.734;2023-05-09T10:48:48;95938.25;;;20.67;37.60
76998;BME280;65930;48.874;10.734;2023-05-09T10:51:16;95952.97;;;20.62;36.76
76998;BME280;65930;48.874;10.734;2023-05-09T10:53:45;95938.72;;;20.56;38.87
76998;BME280;65930;48.874;10.734;2023-05-09T10:56:24;95936.63;;;20.20;39.97
76998;BME280;65930;48.874;10.734;2023-05-09T10:58:53;95943.19;;;20.17;39.37
76998;BME280;65930;48.874;10.734;2023-05-09T11:01:30;95935.75;;;20.87;39.05
76998;BME280;65930;48.874;10.734;2023-05-09T11:04:15;95930.69;;;21.19;38.81
76998;BME280;65930;48.874;10.734;2023-05-09T11:06:47;95915.28;;;21.47;36.53
76998;BME280;65930;48.874;10.734;2023-05-09T11:09:25;95929.41;;;21.38;36.08
76998;BME280;65930;48.874;10.734;2023-05-09T11:11:55;95918.97;;;21.02;33.73
76998;BME280;65930;48.874;10.734;2023-05-09T11:14:28;95904.63;;;21.42;34.08
76998;BME280;65930;48.874;10.734;2023-05-09T11:16:59;95892.91;;;21.43;35.76
76998;BME280;65930;48.874;10.734;2023-05-09T11:19:56;95898.91;;;21.69;36.17
76998;BME280;65930;48.874;10.734;2023-05-09T11:22:25;95889.72;;;21.60;33.91
76998;BME280;65930;48.874;10.734;2023-05-09T11:25:01;95885.91;;;21.30;38.05
76998;BME280;65930;48.874;10.734;2023-05-09T11:27:37;95892.44;;;20.85;38.64
76998;BME280;65930;48.874;10.734;2023-05-09T11:30:07;95882.69;;;21.04;38.67
76998;BME280;65930;48.874;10.734;2023-05-09T11:32:45;95886.22;;;21.32;39.31
76998;BME280;65930;48.874;10.734;2023-05-09T11:35:15;95880.06;;;21.42;38.33
76998;BME280;65930;48.874;10.734;2023-05-09T11:37:46;95868.56;;;21.64;36.44
76998;BME280;65930;48.874;10.734;2023-05-09T11:40:16;95868.97;;;21.39;37.81
76998;BME280;65930;48.874;10.734;2023-05-09T11:42:47;95866.28;;;21.44;37.52
76998;BME280;65930;48.874;10.734;2023-05-09T11:45:19;95858.91;;;21.47;38.49
76998;BME280;65930;48.874;10.734;2023-05-09T11:47:49;95849.28;;;21.63;36.00
76998;BME280;65930;48.874;10.734;2023-05-09T11:50:19;95854.56;;;21.70;36.64
76998;BME280;65930;48.874;10.734;2023-05-09T11:52:48;95848.47;;;21.38;36.26
76998;BME280;65930;48.874;10.734;2023-05-09T11:55:18;95848.91;;;21.46;34.81
76998;BME280;65930;48.874;10.734;2023-05-09T11:57:50;95842.94;;;21.77;38.26
76998;BME280;65930;48.874;10.734;2023-05-09T12:00:23;95842.59;;;21.60;37.54
76998;BME280;65930;48.874;10.734;2023-05-09T12:02:53;95837.03;;;21.66;36.41
76998;BME280;65930;48.874;10.734;2023-05-09T12:05:22;95826.69;;;21.72;36.64
76998;BME280;65930;48.874;10.734;2023-05-09T12:07:53;95833.06;;;21.16;38.39
76998;BME280;65930;48.874;10.734;2023-05-09T12:10:22;95823.06;;;21.15;36.86
76998;BME280;65930;48.874;10.734;2023-05-09T12:12:51;95814.09;;;21.58;38.43
76998;BME280;65930;48.874;10.734;2023-05-09T12:15:21;95818.56;;;21.88;37.15
76998;BME280;65930;48.874;10.734;2023-05-09T12:18:02;95813.50;;;22.25;35.33
76998;BME280;65930;48.874;10.734;2023-05-09T12:20:41;95808.00;;;22.22;35.85
76998;BME280;65930;48.874;10.734;2023-05-09T12:23:09;95774.31;;;21.56;36.75
76998;BME280;65930;48.874;10.734;2023-05-09T12:25:38;95774.03;;;22.16;36.93
76998;BME280;65930;48.874;10.734;2023-05-09T12:28:06;95799.50;;;22.07;37.51
76998;BME280;65930;48.874;10.734;2023-05-09T12:30:34;95795.84;;;22.16;36.57
76998;BME280;65930;48.874;10.734;2023-05-09T12:33:04;95784.91;;;22.62;37.11
76998;BME280;65930;48.874;10.734;2023-05-09T12:35:32;95783.38;;;22.75;36.45
76998;BME280;65930;48.874;10.734;2023-05-09T12:38:01;95773.31;;;22.45;36.32
76998;BME280;65930;48.874;10.734;2023-05-09T12:40:29;95768.19;;;22.58;35.60
76998;BME280;65930;48.874;10.734;2023-05-09T12:42:57;95773.91;;;21.72;40.03
76998;BME280;65930;48.874;10.734;2023-05-09T12:45:30;95770.72;;;22.03;37.39
76998;BME280;65930;48.874;10.734;2023-05-09T12:47:59;95763.00;;;22.57;37.49
76998;BME280;65930;48.874;10.734;2023-05-09T12:50:32;95762.56;;;21.81;36.89
76998;BME280;65930;48.874;10.734;2023-05-09T12:53:02;95754.25;;;20.97;38.34
76998;BME280;65930;48.874;10.734;2023-05-09T12:55:38;95747.75;;;21.72;35.90
76998;BME280;65930;48.874;10.734;2023-05-09T12:58:07;95744.31;;;21.91;37.82
76998;BME280;65930;48.874;10.734;2023-05-09T13:00:44;95743.13;;;22.22;37.83
76998;BME280;65930;48.874;10.734;2023-05-09T13:03:20;95734.88;;;22.33;37.67
76998;BME280;65930;48.874;10.734;2023-05-09T13:05:56;95740.34;;;22.80;38.51
76998;BME280;65930;48.874;10.734;2023-05-09T13:08:25;95742.59;;;22.76;35.30
76998;BME280;65930;48.874;10.734;2023-05-09T13:10:54;95733.03;;;22.74;36.63
76998;BME280;65930;48.874;10.734;2023-05-09T13:13:40;95728.00;;;23.13;37.34
76998;BME280;65930;48.874;10.734;2023-05-09T13:16:08;95716.16;;;23.29;36.38
76998;BME280;65930;48.874;10.734;2023-05-09T13:18:40;95725.66;;;22.76;37.05
76998;BME280;65930;48.874;10.734;2023-05-09T13:21:09;95711.41;;;23.00;38.50
76998;BME280;65930;48.874;10.734;2023-05-09T13:23:37;95706.94;;;22.79;36.64
76998;BME280;65930;48.874;10.734;2023-05-09T13:26:07;95712.00;;;22.60;37.05
76998;BME280;65930;48.874;10.734;2023-05-09T13:28:35;95699.38;;;22.70;37.25
76998;BME280;65930;48.874;10.734;2023-05-09T13:31:06;95695.44;;;22.68;38.16
76998;BME280;65930;48.874;10.734;2023-05-09T13:33:34;95700.13;;;21.98;40.12
76998;BME280;65930;48.874;10.734;2023-05-09T13:36:02;95700.50;;;22.49;39.68
76998;BME280;65930;48.874;10.734;2023-05-09T13:38:31;95687.34;;;22.90;38.01
76998;BME280;65930;48.874;10.734;2023-05-09T13:41:04;95680.97;;;22.02;37.84
76998;BME280;65930;48.874;10.734;2023-05-09T13:43:32;95689.50;;;22.66;39.18
76998;BME280;65930;48.874;10.734;2023-05-09T13:46:00;95679.81;;;23.02;36.73
76998;BME280;65930;48.874;10.734;2023-05-09T13:48:28;95687.97;;;23.69;38.87
76998;BME280;65930;48.874;10.734;2023-05-09T13:50:56;95677.50;;;23.00;36.97
76998;BME280;65930;48.874;10.734;2023-05-09T13:53:25;95678.34;;;22.42;38.24
76998;BME280;65930;48.874;10.734;2023-05-09T13:55:55;95674.81;;;22.62;38.77
76998;BME280;65930;48.874;10.734;2023-05-09T13:58:23;95673.03;;;22.94;38.25
76998;BME280;65930;48.874;10.734;2023-05-09T14:00:51;95654.53;;;22.93;37.31
76998;BME280;65930;48.874;10.734;2023-05-09T14:03:19;95655.94;;;22.53;40.10
76998;BME280;65930;48.874;10.734;2023-05-09T14:05:47;95649.44;;;22.47;37.73
76998;BME280;65930;48.874;10.734;2023-05-09T14:08:15;95643.56;;;21.77;38.81
76998;BME280;65930;48.874;10.734;2023-05-09T14:10:43;95651.69;;;22.14;39.60
76998;BME280;65930;48.874;10.734;2023-05-09T14:13:12;95641.00;;;22.82;39.74
76998;BME280;65930;48.874;10.734;2023-05-09T14:15:41;95633.38;;;22.53;37.45
76998;BME280;65930;48.874;10.734;2023-05-09T14:18:11;95641.09;;;22.88;40.44
76998;BME280;65930;48.874;10.734;2023-05-09T14:20:44;95629.75;;;23.02;38.82
76998;BME280;65930;48.874;10.734;2023-05-09T14:23:11;95632.66;;;22.73;37.89
76998;BME280;65930;48.874;10.734;2023-05-09T14:25:42;95630.09;;;22.11;40.17
76998;BME280;65930;48.874;10.734;2023-05-09T14:28:12;95626.19;;;22.08;39.66
76998;BME280;65930;48.874;10.734;2023-05-09T14:30:40;95618.81;;;22.11;38.23
76998;BME280;65930;48.874;10.734;2023-05-09T14:33:08;95603.19;;;22.45;39.44
76998;BME280;65930;48.874;10.734;2023-05-09T14:35:36;95600.41;;;22.79;38.97
76998;BME280;65930;48.874;10.734;2023-05-09T14:38:07;95594.34;;;22.87;39.64
76998;BME280;65930;48.874;10.734;2023-05-09T14:40:34;95590.09;;;22.27;39.14
76998;BME280;65930;48.874;10.734;2023-05-09T14:43:02;95586.91;;;22.19;38.56
76998;BME280;65930;48.874;10.734;2023-05-09T14:45:32;95592.75;;;22.16;39.10
76998;BME280;65930;48.874;10.734;2023-05-09T14:48:01;95585.75;;;22.11;39.56
76998;BME280;65930;48.874;10.734;2023-05-09T14:50:31;95579.69;;;22.18;38.32
76998;BME280;65930;48.874;10.734;2023-05-09T14:52:59;95580.47;;;22.19;39.37
76998;BME280;65930;48.874;10.734;2023-05-09T14:55:27;95569.38;;;22.30;39.18
76998;BME280;65930;48.874;10.734;2023-05-09T14:57:56;95566.34;;;22.68;38.91
76998;BME280;65930;48.874;10.734;2023-05-09T15:00:24;95563.75;;;22.01;38.93
76998;BME280;65930;48.874;10.734;2023-05-09T15:02:55;95564.53;;;22.16;40.11
76998;BME280;65930;48.874;10.734;2023-05-09T15:05:23;95554.97;;;22.28;38.21
76998;BME280;65930;48.874;10.734;2023-05-09T15:07:51;95560.69;;;22.48;40.26
76998;BME280;65930;48.874;10.734;2023-05-09T15:10:19;95552.00;;;23.07;37.76
76998;BME280;65930;48.874;10.734;2023-05-09T15:12:47;95552.69;;;23.42;36.46
76998;BME280;65930;48.874;10.734;2023-05-09T15:15:17;95548.56;;;23.43;38.06
76998;BME280;65930;48.874;10.734;2023-05-09T15:17:45;95545.91;;;22.73;36.94
76998;BME280;65930;48.874;10.734;2023-05-09T15:20:15;95548.41;;;22.86;37.29
76998;BME280;65930;48.874;10.734;2023-05-09T15:22:45;95546.78;;;23.00;38.19
76998;BME280;65930;48.874;10.734;2023-05-09T15:25:13;95537.16;;;22.71;36.98
76998;BME280;65930;48.874;10.734;2023-05-09T18:33:19;95323.88;;;17.85;46.97
76998;BME280;65930;48.874;10.734;2023-05-09T18:35:47;95331.50;;;17.76;47.52
76998;BME280;65930;48.874;10.734;2023-05-09T18:38:15;95330.56;;;17.79;48.26
76998;BME280;65930;48.874;10.734;2023-05-09T18:40:44;95329.94;;;17.75;47.94
76998;BME280;65930;48.874;10.734;2023-05-09T18:43:12;95323.25;;;17.63;48.70
76998;BME280;65930;48.874;10.734;2023-05-09T18:45:42;95326.16;;;17.59;48.23
76998;BME280;65930;48.874;10.734;2023-05-09T18:48:14;95321.34;;;17.60;47.73
76998;BME280;65930;48.874;10.734;2023-05-09T18:50:44;95320.50;;;17.50;47.93
76998;BME280;65930;48.874;10.734;2023-05-09T18:53:13;95321.47;;;17.56;48.07
76998;BME280;65930;48.874;10.734;2023-05-09T18:55:41;95325.50;;;17.55;48.70
76998;BME280;65930;48.874;10.734;2023-05-09T18:58:09;95333.91;;;17.55;47.92
76998;BME280;65930;48.874;10.734;2023-05-09T19:00:39;95327.81;;;17.39;48.50
76998;BME280;65930;48.874;10.734;2023-05-09T19:03:08;95330.47;;;17.42;49.13
76998;BME280;65930;48.874;10.734;2023-05-09T19:05:36;95331.03;;;17.28;49.19
76998;BME280;65930;48.874;10.734;2023-05-09T19:08:06;95331.03;;;17.28;49.46
76998;BME280;65930;48.874;10.734;2023-05-09T19:10:37;95334.66;;;17.38;49.69
76998;BME280;65930;48.874;10.734;2023-05-09T19:13:08;95334.13;;;17.21;49.71
76998;BME280;65930;48.874;10.734;2023-05-09T19:15:37;95329.84;;;17.38;48.92
76998;BME280;65930;48.874;10.734;2023-05-09T19:18:05;95337.72;;;17.22;49.76
76998;BME280;65930;48.874;10.734;2023-05-09T19:20:33;95335.69;;;17.22;49.24
76998;BME280;65930;48.874;10.734;2023-05-09T19:23:01;95347.97;;;17.25;50.15
76998;BME280;65930;48.874;10.734;2023-05-09T19:25:30;95349.22;;;17.24;49.23
76998;BME280;65930;48.874;10.734;2023-05-09T19:27:59;95347.84;;;17.28;50.04
76998;BME280;65930;48.874;10.734;2023-05-09T19:30:27;95354.38;;;17.25;50.52
76998;BME280;65930;48.874;10.734;2023-05-09T19:32:55;95359.81;;;17.29;50.57
76998;BME280;65930;48.874;10.734;2023-05-09T19:35:24;95357.75;;;17.20;50.80
76998;BME280;65930;48.874;10.734;2023-05-09T19:37:52;95354.63;;;17.18;50.71
76998;BME280;65930;48.874;10.734;2023-05-09T19:40:21;95355.06;;;17.07;51.97
76998;BME280;65930;48.874;10.734;2023-05-09T19:43:03;95366.97;;;16.99;52.33
76998;BME280;65930;48.874;10.734;2023-05-09T19:45:35;95362.94;;;17.00;52.20
76998;BME280;65930;48.874;10.734;2023-05-09T19:48:03;95368.69;;;16.96;52.55
76998;BME280;65930;48.874;10.734;2023-05-09T19:50:31;95364.84;;;17.03;52.74
76998;BME280;65930;48.874;10.734;2023-05-09T19:53:00;95372.91;;;17.01;53.12
76998;BME280;65930;48.874;10.734;2023-05-09T19:55:28;95376.91;;;16.91;52.98
76998;BME280;65930;48.874;10.734;2023-05-09T19:57:57;95377.53;;;16.95;53.43
76998;BME280;65930;48.874;10.734;2023-05-09T20:00:30;95376.78;;;17.03;53.68
76998;BME280;65930;48.874;10.734;2023-05-09T20:03:02;95381.63;;;17.03;52.72
76998;BME280;65930;48.874;10.734;2023-05-09T20:05:31;95376.63;;;16.98;53.60
76998;BME280;65930;48.874;10.734;2023-05-09T20:08:02;95375.72;;;17.01;54.44
76998;BME280;65930;48.874;10.734;2023-05-09T20:10:32;95379.53;;;16.94;54.15
76998;BME280;65930;48.874;10.734;2023-05-09T20:13:05;95389.84;;;16.97;54.50
76998;BME280;65930;48.874;10.734;2023-05-09T20:15:34;95397.53;;;17.15;54.24
76998;BME280;65930;48.874;10.734;2023-05-09T20:18:02;95401.34;;;16.99;54.62
76998;BME280;65930;48.874;10.734;2023-05-09T20:20:34;95430.03;;;16.91;55.88
76998;BME280;65930;48.874;10.734;2023-05-09T20:23:03;95452.38;;;16.47;59.22
76998;BME280;65930;48.874;10.734;2023-05-09T20:25:55;95461.66;;;16.10;64.17
76998;BME280;65930;48.874;10.734;2023-05-09T20:28:25;95483.72;;;15.70;68.14
76998;BME280;65930;48.874;10.734;2023-05-09T20:30:55;95499.16;;;15.62;69.16
76998;BME280;65930;48.874;10.734;2023-05-09T20:33:25;95489.75;;;15.56;71.19
76998;BME280;65930;48.874;10.734;2023-05-09T20:35:58;95492.53;;;15.43;72.18
76998;BME280;65930;48.874;10.734;2023-05-09T20:38:26;95502.06;;;15.04;76.75
76998;BME280;65930;48.874;10.734;2023-05-09T20:40:56;95508.72;;;14.94;78.37
76998;BME280;65930;48.874;10.734;2023-05-09T20:43:25;95504.88;;;14.75;79.76
76998;BME280;65930;48.874;10.734;2023-05-09T20:45:53;95517.09;;;14.65;81.43
76998;BME280;65930;48.874;10.734;2023-05-09T20:48:21;95505.34;;;14.58;83.03
76998;BME280;65930;48.874;10.734;2023-05-09T20:50:55;95509.81;;;14.55;85.12
76998;BME280;65930;48.874;10.734;2023-05-09T20:53:23;95506.34;;;14.51;85.31